createdAt,value
2023-03-14T17:13:32.794Z,3.36
2023-03-14T17:18:31.202Z,3.75
2023-03-14T17:23:40.089Z,4.19
2023-03-14T17:28:48.632Z,3.92
2023-03-14T17:33:57.417Z,3.34
2023-03-14T17:39:06.014Z,3.04
2023-03-14T17:44:14.588Z,3.27
2023-03-14T17:49:23.507Z,3.61
2023-03-14T17:54:32.525Z,3.65
2023-03-14T17:59:41.704Z,3.26
2023-03-14T18:04:51.681Z,3.33
2023-03-14T18:10:01.527Z,3.11
2023-03-14T18:15:11.209Z,2.95
2023-03-14T18:20:21.757Z,2.89
2023-03-14T18:25:23.000Z,2.68
2023-03-14T18:30:22.004Z,2.75
2023-03-14T18:35:31.133Z,2.76
2023-03-14T18:40:39.667Z,2.62
2023-03-14T18:45:48.972Z,2.57
2023-03-14T18:50:57.367Z,2.47
2023-03-14T18:56:06.291Z,2.50
2023-03-14T19:01:18.607Z,2.71
2023-03-14T19:06:17.390Z,2.45
2023-03-14T19:11:25.643Z,2.29
2023-03-14T19:16:35.570Z,2.25
2023-03-14T19:21:44.194Z,2.29
2023-03-14T19:26:54.763Z,2.30
2023-03-14T19:32:01.058Z,2.25
2023-03-14T19:37:09.978Z,2.17
2023-03-14T19:42:18.228Z,2.41
2023-03-14T19:47:27.239Z,2.28
2023-03-14T19:52:36.087Z,2.32
2023-03-14T19:57:44.871Z,2.44
2023-03-14T20:02:53.477Z,2.60
2023-03-14T20:08:02.361Z,3.34
2023-03-14T20:13:20.644Z,2.64
2023-03-14T20:18:19.294Z,2.42
2023-03-14T20:23:28.046Z,2.51
2023-03-14T20:28:36.792Z,2.55
2023-03-14T20:33:45.656Z,2.42
2023-03-14T20:38:55.030Z,2.44
2023-03-14T20:44:03.246Z,2.18
2023-03-14T20:49:12.611Z,2.90
2023-03-14T20:54:20.827Z,2.22
2023-03-14T20:59:29.949Z,1.90
2023-03-14T21:04:38.371Z,2.10
2023-03-14T21:09:47.477Z,2.59
2023-03-14T21:14:56.004Z,2.35
2023-03-14T21:20:04.792Z,2.25
2023-03-14T21:25:13.452Z,2.46
2023-03-14T21:30:22.100Z,2.35
2023-03-14T21:35:30.333Z,2.18
2023-03-14T21:40:39.565Z,2.15
2023-03-14T21:45:48.409Z,2.35
2023-03-14T21:50:57.587Z,2.16
2023-03-14T21:56:06.533Z,1.79
2023-03-14T22:01:16.933Z,1.76
2023-03-14T22:06:15.592Z,1.74
2023-03-14T22:11:24.783Z,1.99
2023-03-14T22:16:33.188Z,1.76
2023-03-14T22:21:41.639Z,2.03
2023-03-14T22:26:50.297Z,1.64
2023-03-14T22:31:59.564Z,1.80
2023-03-14T22:37:08.119Z,1.61
2023-03-14T22:42:16.936Z,1.73
2023-03-14T22:47:25.131Z,1.57
2023-03-14T22:52:34.091Z,1.81
2023-03-14T22:57:42.793Z,1.50
2023-03-14T23:02:51.560Z,1.40
2023-03-14T23:08:00.139Z,1.71
2023-03-14T23:13:08.713Z,1.70
2023-03-14T23:18:17.578Z,1.74
2023-03-14T23:23:26.602Z,1.85
2023-03-14T23:28:35.122Z,1.71
2023-03-14T23:33:44.348Z,1.98
2023-03-14T23:38:53.196Z,1.80
2023-03-14T23:44:02.196Z,1.79
2023-03-14T23:49:10.614Z,1.74
2023-03-14T23:54:19.641Z,1.63
2023-03-14T23:59:28.230Z,1.63
